Terminal Aerodrome Forecast
Issued by NWS Cleveland, OH

Home | Current Version | Previous Version | Text Only | Print | Product List | Glossary On
Versions: 1 2 3 4 5 6 7 8 9 10 11 12 13 14 15 16 17 18 19
000
FTUS41 KCLE 280530
TAFYNG
TAF
KYNG 280530Z 2806/2906 VRB03KT P6SM SCT060 BKN120
     FM281000 14005KT P6SM SCT035 BKN060
      TEMPO 2810/2813 3SM BR BKN030
     FM281300 14005KT P6SM BKN030
     FM281600 16008KT P6SM BKN035
     FM282100 19010KT P6SM VCTS BKN040CB OVC060
     FM290400 24010KT P6SM VCSH BKN030 OVC050=

USA.gov is the U.S. government's official web portal to all federal, state and local government web resources and services.